createdAt,value
2019-06-07T00:00:04.461Z,7.50
2019-06-07T00:02:16.371Z,7.17
2019-06-07T00:04:21.633Z,7.43
2019-06-07T00:06:27.915Z,7.10
2019-06-07T00:08:34.168Z,6.63
2019-06-07T00:10:40.523Z,7.27
2019-06-07T00:12:46.679Z,6.97
2019-06-07T00:14:52.841Z,7.40
2019-06-07T00:16:59.110Z,6.70
2019-06-07T00:19:05.271Z,6.50
2019-06-07T00:21:11.920Z,7.53
2019-06-07T00:23:20.697Z,7.50
2019-06-07T00:25:26.302Z,6.73
2019-06-07T00:27:32.549Z,7.00
2019-06-07T00:29:38.711Z,7.03
2019-06-07T00:31:47.734Z,7.77
2019-06-07T00:33:53.966Z,7.43
2019-06-07T00:36:00.296Z,7.73
2019-06-07T00:38:06.522Z,7.47
2019-06-07T00:40:17.851Z,7.50
2019-06-07T00:42:24.221Z,7.50
2019-06-07T00:44:30.793Z,7.30
2019-06-07T00:46:36.982Z,7.47
2019-06-07T00:48:43.260Z,6.97
2019-06-07T00:50:49.604Z,6.97
2019-06-07T00:53:14.591Z,7.33
2019-06-07T00:55:04.808Z,7.57
2019-06-07T00:57:12.421Z,7.50
2019-06-07T00:59:28.851Z,6.90
2019-06-07T01:01:31.777Z,7.53
2019-06-07T01:03:39.482Z,6.60
2019-06-07T01:05:45.718Z,7.13
2019-06-07T01:07:51.896Z,6.77
2019-06-07T01:09:58.155Z,7.07
2019-06-07T01:12:05.020Z,8.27
2019-06-07T01:14:11.337Z,7.30
2019-06-07T01:16:18.777Z,7.67
2019-06-07T01:18:37.366Z,7.60
2019-06-07T01:20:33.427Z,7.53
2019-06-07T01:22:39.585Z,7.33
2019-06-07T01:24:45.954Z,7.67
2019-06-07T01:26:53.170Z,7.10
2019-06-07T01:28:59.836Z,7.30
2019-06-07T01:31:07.204Z,8.57
2019-06-07T01:33:13.656Z,7.77
2019-06-07T01:35:21.416Z,8.10
2019-06-07T01:37:30.165Z,7.77
2019-06-07T01:39:35.921Z,7.43
2019-06-07T01:41:42.074Z,7.40
2019-06-07T01:43:48.335Z,8.17
2019-06-07T01:45:54.500Z,7.20
2019-06-07T01:48:00.953Z,8.20
2019-06-07T01:50:09.785Z,7.80
2019-06-07T01:52:16.591Z,8.10
2019-06-07T01:56:30.707Z,7.73
2019-06-07T01:58:37.078Z,8.27
2019-06-07T02:00:44.354Z,7.50
2019-06-07T02:02:50.839Z,8.00
2019-06-07T02:04:57.499Z,7.80
2019-06-07T02:07:03.769Z,8.00
2019-06-07T02:09:10.622Z,8.63
2019-06-07T02:11:18.080Z,8.13
2019-06-07T02:13:27.826Z,8.13
2019-06-07T02:15:36.624Z,7.37
2019-06-07T02:17:40.800Z,9.40
2019-06-07T02:19:46.951Z,9.57
2019-06-07T02:21:53.110Z,8.63
2019-06-07T02:23:59.311Z,8.77
2019-06-07T02:26:05.737Z,8.70
2019-06-07T02:28:27.310Z,8.13
2019-06-07T02:30:44.207Z,8.20
2019-06-07T02:32:31.991Z,8.17
2019-06-07T02:34:39.639Z,8.53
2019-06-07T02:36:44.214Z,9.53
2019-06-07T02:38:50.360Z,9.00
2019-06-07T02:40:56.538Z,8.97
2019-06-07T02:43:02.775Z,8.30
2019-06-07T02:45:11.194Z,8.53
2019-06-07T02:47:17.856Z,8.27
2019-06-07T02:49:26.865Z,8.90
2019-06-07T02:51:35.799Z,8.10
2019-06-07T02:53:40.501Z,9.47
2019-06-07T02:56:34.374Z,9.33
2019-06-07T02:57:54.705Z,8.27
2019-06-07T03:00:26.032Z,9.17
2019-06-07T03:02:10.483Z,8.80
2019-06-07T03:04:17.006Z,9.87
2019-06-07T03:06:33.261Z,8.90
2019-06-07T03:08:38.249Z,10.13
2019-06-07T03:10:48.735Z,8.80
2019-06-07T03:12:55.915Z,9.53
2019-06-07T03:15:03.981Z,8.30
2019-06-07T03:17:14.779Z,9.07
2019-06-07T03:19:26.459Z,9.80
2019-06-07T03:21:37.549Z,9.40
2019-06-07T03:23:45.750Z,9.60
2019-06-07T03:25:54.470Z,9.87
2019-06-07T03:28:00.730Z,10.60
2019-06-07T03:30:36.490Z,9.77
2019-06-07T03:32:16.529Z,9.53
2019-06-07T03:34:22.786Z,9.87
2019-06-07T03:36:29.694Z,9.93
2019-06-07T03:38:39.640Z,9.77
2019-06-07T03:40:45.256Z,9.77
2019-06-07T03:42:51.424Z,9.30
2019-06-07T03:44:57.667Z,9.87
2019-06-07T03:47:03.842Z,9.50
2019-06-07T03:49:09.981Z,9.83
2019-06-07T03:51:24.519Z,9.77
2019-06-07T03:53:24.127Z,9.70
2019-06-07T03:55:34.856Z,8.13
2019-06-07T03:58:29.138Z,9.47
2019-06-07T03:59:46.189Z,9.87
2019-06-07T04:01:53.114Z,10.10
2019-06-07T04:03:59.237Z,10.30
2019-06-07T04:06:05.384Z,10.20
2019-06-07T04:08:11.554Z,10.80
2019-06-07T04:10:18.013Z,9.17
2019-06-07T04:12:24.174Z,10.73
2019-06-07T04:14:30.928Z,10.60
2019-06-07T04:16:41.682Z,9.37
2019-06-07T04:18:46.141Z,10.77
2019-06-07T04:20:53.422Z,10.53
2019-06-07T04:22:59.683Z,10.80
2019-06-07T04:25:11.408Z,10.27
2019-06-07T04:27:17.632Z,11.27
2019-06-07T04:29:33.320Z,11.23
2019-06-07T04:31:32.639Z,10.80
2019-06-07T04:33:43.347Z,12.40
2019-06-07T04:35:47.582Z,10.10
2019-06-07T04:37:54.250Z,12.30
2019-06-07T04:40:01.450Z,11.23
2019-06-07T04:42:08.601Z,10.90
2019-06-07T04:44:17.027Z,10.63
2019-06-07T04:46:24.720Z,11.80
2019-06-07T04:48:35.955Z,11.17
2019-06-07T04:50:44.083Z,10.73
2019-06-07T04:52:49.521Z,11.70
2019-06-07T04:54:56.188Z,11.10
2019-06-07T04:57:02.374Z,12.13
2019-06-07T04:59:08.523Z,11.30
2019-06-07T05:01:26.746Z,11.47
2019-06-07T05:03:24.329Z,11.83
2019-06-07T05:05:31.890Z,10.97
2019-06-07T05:07:43.006Z,11.10
2019-06-07T05:09:46.035Z,11.93
2019-06-07T05:11:52.324Z,11.00
2019-06-07T05:13:58.692Z,9.80
2019-06-07T05:16:04.974Z,11.47
2019-06-07T05:18:12.154Z,11.97
2019-06-07T05:20:19.116Z,10.87
2019-06-07T05:22:25.271Z,11.10
2019-06-07T05:24:35.568Z,11.40
2019-06-07T05:26:42.248Z,10.83
2019-06-07T05:28:47.331Z,11.87
2019-06-07T05:31:05.350Z,12.50
2019-06-07T05:33:01.402Z,11.03
2019-06-07T05:35:09.985Z,11.27
2019-06-07T05:37:16.374Z,11.07
2019-06-07T05:39:22.633Z,10.23
2019-06-07T05:41:28.887Z,10.47
2019-06-07T05:43:39.321Z,9.73
2019-06-07T05:45:46.809Z,11.27
2019-06-07T05:47:51.419Z,10.37
2019-06-07T05:49:57.966Z,10.50
2019-06-07T05:52:04.617Z,10.50
2019-06-07T05:54:10.639Z,9.90
2019-06-07T05:56:17.260Z,10.07
2019-06-07T05:58:23.677Z,9.50
2019-06-07T06:00:29.939Z,10.70
2019-06-07T06:02:58.657Z,9.37
2019-06-07T06:04:48.785Z,10.57
2019-06-07T06:06:51.806Z,9.03
2019-06-07T06:09:13.558Z,9.60
2019-06-07T06:11:06.250Z,9.13
2019-06-07T06:13:12.514Z,9.60
2019-06-07T06:15:18.888Z,9.85
2019-06-07T06:17:25.034Z,8.23
2019-06-07T06:19:31.197Z,9.50
2019-06-07T06:21:38.523Z,8.37
2019-06-07T06:23:52.079Z,9.03
2019-06-07T06:25:57.916Z,8.45
2019-06-07T06:28:11.483Z,9.85
2019-06-07T06:30:13.934Z,10.27
2019-06-07T06:34:27.933Z,8.75
2019-06-07T06:36:34.707Z,9.25
2019-06-07T06:38:41.382Z,9.30
2019-06-07T06:40:52.719Z,8.63
2019-06-07T06:42:56.213Z,9.18
2019-06-07T06:45:02.627Z,7.87
2019-06-07T06:47:09.173Z,8.40
2019-06-07T06:49:15.426Z,8.73
2019-06-07T06:51:21.495Z,9.55
2019-06-07T06:53:27.741Z,8.23
2019-06-07T06:55:33.922Z,8.50
2019-06-07T06:57:41.801Z,8.15
2019-06-07T06:59:52.072Z,8.58
2019-06-07T07:01:55.764Z,8.43
2019-06-07T07:04:12.154Z,9.28
2019-06-07T07:06:25.152Z,8.35
2019-06-07T07:08:18.842Z,9.13
2019-06-07T07:10:38.526Z,9.13
2019-06-07T07:12:45.495Z,8.58
2019-06-07T07:14:55.241Z,8.18
2019-06-07T07:16:59.464Z,8.40
2019-06-07T07:19:05.918Z,8.35
2019-06-07T07:21:12.282Z,8.50
2019-06-07T07:23:18.560Z,8.63
2019-06-07T07:25:24.901Z,9.08
2019-06-07T07:27:30.955Z,8.93
2019-06-07T07:29:37.141Z,8.85
2019-06-07T07:31:45.467Z,9.83
2019-06-07T07:38:06.983Z,9.58
2019-06-07T07:40:55.463Z,9.23
2019-06-07T07:42:21.874Z,9.58
2019-06-07T07:44:28.119Z,8.13
2019-06-07T07:46:35.474Z,7.30
2019-06-07T07:48:41.980Z,9.20
2019-06-07T07:50:51.707Z,8.40
2019-06-07T07:53:00.690Z,8.55
2019-06-07T07:55:04.949Z,8.60
2019-06-07T07:57:11.196Z,9.83
2019-06-07T07:59:17.575Z,9.48
2019-06-07T08:01:23.931Z,9.53
2019-06-07T08:03:30.190Z,8.93
2019-06-07T08:05:42.784Z,9.38
2019-06-07T08:07:44.455Z,9.03
2019-06-07T08:09:55.394Z,8.70
2019-06-07T08:12:00.708Z,9.13
2019-06-07T08:14:06.416Z,8.98
2019-06-07T08:16:16.485Z,9.10
2019-06-07T08:18:21.391Z,9.10
2019-06-07T08:20:27.647Z,7.67
2019-06-07T08:22:33.902Z,10.10
2019-06-07T08:24:40.076Z,9.58
2019-06-07T08:27:12.366Z,8.50
2019-06-07T08:28:56.948Z,8.98
2019-06-07T08:31:06.924Z,9.48
2019-06-07T08:33:25.416Z,9.18
2019-06-07T08:36:02.950Z,10.32
2019-06-07T08:38:13.143Z,9.63
2019-06-07T08:39:34.869Z,8.88
2019-06-07T08:41:54.169Z,9.28
2019-06-07T08:43:50.773Z,8.05
2019-06-07T08:46:03.735Z,7.58
2019-06-07T08:48:18.218Z,8.95
2019-06-07T08:50:16.179Z,8.58
2019-06-07T08:52:22.489Z,8.08
2019-06-07T08:54:29.011Z,7.45
2019-06-07T08:56:35.270Z,8.08
2019-06-07T08:58:42.755Z,8.05
2019-06-07T09:00:49.139Z,7.30
2019-06-07T09:02:58.043Z,8.65
2019-06-07T09:05:11.779Z,9.80
2019-06-07T09:07:19.494Z,9.80
2019-06-07T09:09:19.410Z,8.95
2019-06-07T09:11:25.617Z,9.23
2019-06-07T09:13:33.324Z,9.28
2019-06-07T09:15:40.090Z,8.28
2019-06-07T09:18:30.281Z,8.40
2019-06-07T09:19:58.967Z,9.50
2019-06-07T09:22:10.240Z,8.98
2019-06-07T09:24:13.056Z,8.30
2019-06-07T09:26:20.029Z,8.45
2019-06-07T09:28:27.751Z,8.65
2019-06-07T09:30:45.760Z,9.18
2019-06-07T09:32:51.978Z,8.70
2019-06-07T09:35:02.479Z,9.15
2019-06-07T09:37:41.492Z,9.43
2019-06-07T09:39:14.168Z,9.50
2019-06-07T09:41:20.424Z,8.65
2019-06-07T09:45:35.594Z,8.65
2019-06-07T09:47:41.973Z,8.68
2019-06-07T09:49:48.138Z,9.35
2019-06-07T09:51:54.317Z,9.08
2019-06-07T09:54:04.314Z,8.30
2019-06-07T09:56:12.268Z,7.97
2019-06-07T10:00:44.563Z,8.80
2019-06-07T10:02:38.594Z,8.93
2019-06-07T10:04:44.752Z,7.12
2019-06-07T10:06:52.351Z,7.72
2019-06-07T10:10:08.168Z,6.58
2019-06-07T10:11:10.196Z,7.75
2019-06-07T10:13:37.310Z,7.58
2019-06-07T10:15:43.914Z,7.25
2019-06-07T10:17:50.182Z,6.97
2019-06-07T10:19:56.445Z,7.65
2019-06-07T10:22:03.417Z,6.42
2019-06-07T10:24:09.830Z,6.60
2019-06-07T10:26:16.233Z,6.90
2019-06-07T10:28:22.431Z,6.67
2019-06-07T10:30:28.786Z,6.28
2019-06-07T10:32:35.033Z,7.62
2019-06-07T10:34:41.179Z,6.58
2019-06-07T10:36:48.777Z,6.87
2019-06-07T10:38:55.023Z,7.45
2019-06-07T10:41:01.303Z,7.03
2019-06-07T10:43:07.561Z,7.60
2019-06-07T10:45:14.672Z,7.58
2019-06-07T10:47:20.895Z,7.67
2019-06-07T10:49:27.051Z,8.00
2019-06-07T10:51:33.286Z,7.67
2019-06-07T10:53:39.464Z,9.00
2019-06-07T10:55:45.638Z,9.08
2019-06-07T10:57:53.484Z,8.75
2019-06-07T11:00:01.243Z,8.50
2019-06-07T11:02:09.651Z,8.68
2019-06-07T11:04:16.103Z,8.30
2019-06-07T11:06:22.521Z,9.18
2019-06-07T11:08:28.813Z,9.48
2019-06-07T11:10:34.972Z,9.10
2019-06-07T11:12:41.154Z,9.40
2019-06-07T11:14:47.606Z,9.28
2019-06-07T11:16:54.076Z,10.50
2019-06-07T11:19:00.340Z,11.28
2019-06-07T11:21:06.516Z,9.38
2019-06-07T11:23:12.686Z,10.48
2019-06-07T11:25:19.620Z,8.83
2019-06-07T11:27:26.009Z,8.88
2019-06-07T11:29:35.459Z,8.95
2019-06-07T11:31:41.664Z,8.90
2019-06-07T11:33:47.694Z,9.43
2019-06-07T11:35:53.803Z,8.93
2019-06-07T11:38:01.013Z,9.55
2019-06-07T11:40:35.546Z,9.10
2019-06-07T11:42:22.287Z,8.38
2019-06-07T11:44:28.468Z,8.78
2019-06-07T11:46:34.743Z,9.78
2019-06-07T11:48:41.393Z,8.50
2019-06-07T11:50:47.555Z,8.38
2019-06-07T11:52:53.652Z,8.25
2019-06-07T11:54:59.870Z,8.08
2019-06-07T11:57:06.864Z,7.37
2019-06-07T11:59:13.518Z,8.15
2019-06-07T12:01:19.785Z,7.22
2019-06-07T12:03:26.144Z,7.75
2019-06-07T12:05:32.428Z,7.95
2019-06-07T12:07:38.763Z,9.25
2019-06-07T12:09:56.029Z,8.90
2019-06-07T12:11:52.935Z,8.28
2019-06-07T12:14:00.227Z,9.08
2019-06-07T12:16:06.983Z,9.15
2019-06-07T12:18:13.247Z,9.03
2019-06-07T12:20:21.133Z,8.70
2019-06-07T12:22:27.396Z,8.93
2019-06-07T12:24:33.555Z,8.80
2019-06-07T12:26:39.850Z,9.93
2019-06-07T12:28:46.596Z,10.55
2019-06-07T12:30:55.238Z,9.95
2019-06-07T12:33:02.636Z,10.35
2019-06-07T12:35:11.355Z,10.23
2019-06-07T12:37:22.454Z,9.78
2019-06-07T12:39:27.155Z,10.25
2019-06-07T12:41:37.157Z,10.80
2019-06-07T12:43:43.852Z,10.28
2019-06-07T12:45:50.095Z,9.53
2019-06-07T12:48:00.239Z,7.87
2019-06-07T12:50:10.603Z,7.15
2019-06-07T12:52:19.392Z,6.62
2019-06-07T12:54:24.955Z,6.35
2019-06-07T12:56:31.118Z,6.00
2019-06-07T12:58:39.610Z,6.20
2019-06-07T13:00:45.998Z,6.28
2019-06-07T13:02:52.691Z,5.37
2019-06-07T13:04:58.927Z,6.05
2019-06-07T13:07:05.507Z,5.95
2019-06-07T13:09:13.407Z,4.95
2019-06-07T13:11:26.099Z,3.98
2019-06-07T13:13:34.914Z,4.53
2019-06-07T13:15:42.504Z,4.28
2019-06-07T13:17:48.788Z,4.20
2019-06-07T13:19:55.415Z,3.58
2019-06-07T13:22:01.609Z,3.85
2019-06-07T13:24:08.298Z,4.22
2019-06-07T13:26:16.923Z,4.72
2019-06-07T13:28:25.217Z,4.05
2019-06-07T13:30:36.490Z,4.17
2019-06-07T13:32:43.856Z,4.05
2019-06-07T13:34:50.440Z,4.17
2019-06-07T13:36:56.603Z,3.98
2019-06-07T13:39:02.847Z,4.70
2019-06-07T13:41:09.110Z,5.50
2019-06-07T13:43:15.262Z,5.40
2019-06-07T13:45:22.340Z,5.00
2019-06-07T13:47:28.820Z,4.97
2019-06-07T13:49:36.213Z,4.62
2019-06-07T13:51:42.466Z,4.80
2019-06-07T13:53:48.726Z,5.40
2019-06-07T13:55:55.187Z,5.50
2019-06-07T13:58:01.440Z,5.28
2019-06-07T14:00:12.001Z,5.90
2019-06-07T14:02:23.489Z,5.65
2019-06-07T14:04:29.236Z,5.72
2019-06-07T14:06:35.807Z,6.00
2019-06-07T14:08:41.987Z,5.92
2019-06-07T14:10:48.041Z,6.95
2019-06-07T14:12:54.081Z,7.83
2019-06-07T14:15:00.650Z,7.50
2019-06-07T14:17:06.807Z,7.25
2019-06-07T14:19:13.172Z,7.20
2019-06-07T14:21:20.399Z,7.90
2019-06-07T14:23:42.445Z,7.72
2019-06-07T14:25:34.603Z,7.70
2019-06-07T14:27:40.872Z,7.87
2019-06-07T14:29:47.232Z,7.10
2019-06-07T14:31:53.386Z,7.17
2019-06-07T14:33:59.551Z,7.70
2019-06-07T14:36:05.753Z,6.90
2019-06-07T14:38:12.798Z,7.15
2019-06-07T14:40:20.593Z,6.62
2019-06-07T14:42:27.093Z,5.90
2019-06-07T14:44:33.905Z,5.30
2019-06-07T14:46:40.188Z,5.50
2019-06-07T14:48:46.345Z,5.72
2019-06-07T14:50:52.481Z,5.70
2019-06-07T14:52:58.636Z,5.80
2019-06-07T14:55:08.467Z,5.80
2019-06-07T14:57:14.646Z,5.08
2019-06-07T14:59:20.924Z,5.67
2019-06-07T15:01:28.499Z,5.28
2019-06-07T15:03:34.896Z,4.87
2019-06-07T15:05:41.125Z,6.35
2019-06-07T15:07:47.307Z,6.60
2019-06-07T15:09:53.431Z,6.55
2019-06-07T15:11:59.600Z,6.60
2019-06-07T15:14:06.907Z,7.00
2019-06-07T15:16:13.148Z,7.62
2019-06-07T15:18:19.821Z,7.62
2019-06-07T15:20:25.982Z,6.47
2019-06-07T15:22:32.246Z,6.75
2019-06-07T15:24:40.506Z,6.53
2019-06-07T15:26:46.412Z,6.40
2019-06-07T15:28:54.154Z,6.83
2019-06-07T15:31:00.236Z,6.42
2019-06-07T15:33:06.412Z,6.42
2019-06-07T15:35:12.938Z,6.47
2019-06-07T15:37:20.572Z,7.08
2019-06-07T15:39:28.345Z,6.45
2019-06-07T15:41:35.063Z,4.80
2019-06-07T15:43:41.494Z,5.30
2019-06-07T15:45:47.865Z,5.72
2019-06-07T15:47:54.016Z,5.50
2019-06-07T15:50:00.269Z,5.90
2019-06-07T15:52:06.457Z,6.37
2019-06-07T15:54:12.854Z,5.15
2019-06-07T15:56:19.061Z,5.90
2019-06-07T15:58:25.325Z,6.30
2019-06-07T16:00:31.519Z,5.85
2019-06-07T16:02:37.751Z,5.50
2019-06-07T16:04:43.900Z,4.95
2019-06-07T16:06:50.057Z,5.05
2019-06-07T16:08:56.227Z,5.05
2019-06-07T16:11:02.689Z,6.78
2019-06-07T16:13:09.970Z,4.67
2019-06-07T16:15:17.740Z,6.17
2019-06-07T16:17:24.437Z,6.40
2019-06-07T16:19:30.697Z,6.95
2019-06-07T16:21:37.397Z,7.78
2019-06-07T16:23:44.105Z,7.80
2019-06-07T16:25:50.506Z,8.43
2019-06-07T16:27:56.782Z,8.63
2019-06-07T16:30:08.970Z,7.80
2019-06-07T16:32:14.617Z,7.70
2019-06-07T16:34:20.864Z,7.30
2019-06-07T16:36:27.129Z,7.80
2019-06-07T16:38:33.378Z,7.58
2019-06-07T16:40:40.350Z,7.30
2019-06-07T16:42:46.951Z,7.28
2019-06-07T16:44:53.210Z,7.40
2019-06-07T16:46:59.555Z,7.62
2019-06-07T16:49:05.717Z,7.00
2019-06-07T16:51:11.979Z,6.92
2019-06-07T16:53:19.549Z,7.75
2019-06-07T16:55:25.733Z,7.83
2019-06-07T16:57:32.011Z,8.20
2019-06-07T16:59:38.795Z,8.33
2019-06-07T17:01:45.354Z,7.90
2019-06-07T17:03:51.575Z,8.08
2019-06-07T17:05:57.838Z,7.40
2019-06-07T17:08:04.675Z,7.55
2019-06-07T17:10:13.499Z,7.60
2019-06-07T17:12:20.022Z,7.50
2019-06-07T17:14:26.280Z,7.40
2019-06-07T17:16:32.518Z,7.30
2019-06-07T17:18:39.045Z,7.12
2019-06-07T17:20:47.386Z,8.50
2019-06-07T17:22:54.911Z,8.30
2019-06-07T17:25:01.154Z,8.65
2019-06-07T17:27:08.396Z,8.28
2019-06-07T17:29:14.682Z,7.97
2019-06-07T17:31:21.278Z,7.95
2019-06-07T17:33:28.559Z,8.78
2019-06-07T17:35:34.802Z,8.83
2019-06-07T17:37:43.166Z,8.60
2019-06-07T17:39:50.905Z,9.73
2019-06-07T17:42:02.171Z,8.38
2019-06-07T17:44:05.590Z,10.35
2019-06-07T17:46:11.936Z,10.20
2019-06-07T17:48:18.122Z,11.20
2019-06-07T17:50:24.243Z,11.22
2019-06-07T17:52:32.777Z,11.50
2019-06-07T17:54:39.049Z,11.57
2019-06-07T17:56:46.307Z,11.70
2019-06-07T17:58:52.587Z,12.03
2019-06-07T18:00:58.855Z,11.85
2019-06-07T18:03:06.014Z,11.73
2019-06-07T18:05:13.215Z,11.50
2019-06-07T18:07:21.757Z,10.63
2019-06-07T18:09:28.777Z,11.73
2019-06-07T18:11:34.937Z,11.43
2019-06-07T18:13:41.163Z,10.77
2019-06-07T18:15:53.963Z,9.30
2019-06-07T18:17:57.827Z,9.97
2019-06-07T18:20:05.736Z,10.07
2019-06-07T18:22:11.885Z,10.50
2019-06-07T18:24:18.364Z,10.17
2019-06-07T18:26:24.622Z,10.67
2019-06-07T18:28:30.777Z,10.37
2019-06-07T18:30:37.810Z,9.63
2019-06-07T18:32:44.123Z,10.23
2019-06-07T18:34:50.815Z,10.30
2019-06-07T18:36:59.300Z,10.93
2019-06-07T18:39:09.101Z,10.15
2019-06-07T18:41:15.732Z,10.63
2019-06-07T18:43:21.954Z,9.57
2019-06-07T18:45:30.397Z,10.87
2019-06-07T18:47:36.367Z,10.27
2019-06-07T18:49:42.703Z,10.27
2019-06-07T18:51:52.353Z,11.65
2019-06-07T18:53:58.520Z,12.57
2019-06-07T18:56:05.126Z,12.67
2019-06-07T18:58:11.675Z,10.63
2019-06-07T19:00:24.164Z,11.00
2019-06-07T19:02:30.544Z,11.93
2019-06-07T19:04:36.918Z,13.13
2019-06-07T19:06:43.264Z,12.17
2019-06-07T19:08:53.129Z,11.53
2019-06-07T19:10:58.894Z,13.20
2019-06-07T19:13:05.985Z,13.47
2019-06-07T19:15:15.990Z,13.47
2019-06-07T19:17:22.638Z,13.97
2019-06-07T19:19:29.042Z,15.03
2019-06-07T19:21:35.573Z,12.97
2019-06-07T19:23:42.169Z,13.30
2019-06-07T19:25:48.414Z,12.53
2019-06-07T19:27:55.053Z,13.43
2019-06-07T19:30:01.348Z,12.17
2019-06-07T19:32:07.695Z,12.23
2019-06-07T19:34:13.954Z,12.97
2019-06-07T19:36:20.321Z,13.63
2019-06-07T19:38:26.793Z,13.33
2019-06-07T19:40:33.406Z,13.37
2019-06-07T19:42:39.825Z,12.80
2019-06-07T19:44:54.247Z,13.63
2019-06-07T19:46:54.347Z,12.90
2019-06-07T19:49:00.975Z,13.03
2019-06-07T19:51:07.325Z,14.47
2019-06-07T19:53:13.802Z,13.80
2019-06-07T19:55:20.469Z,14.40
2019-06-07T19:57:26.919Z,15.40
2019-06-07T19:59:33.297Z,15.63
2019-06-07T20:01:39.683Z,15.30
2019-06-07T20:03:49.528Z,16.33
2019-06-07T20:05:54.219Z,15.43
2019-06-07T20:08:00.784Z,15.73
2019-06-07T20:10:11.922Z,17.03
2019-06-07T20:12:19.148Z,16.23
2019-06-07T20:14:30.153Z,17.73
2019-06-07T20:16:36.958Z,16.60
2019-06-07T20:18:43.119Z,16.63
2019-06-07T20:20:50.516Z,17.17
2019-06-07T20:22:56.767Z,17.40
2019-06-07T20:25:03.326Z,17.57
2019-06-07T20:27:09.461Z,17.63
2019-06-07T20:29:25.836Z,17.33
2019-06-07T20:31:23.994Z,18.13
2019-06-07T20:33:32.881Z,16.30
2019-06-07T20:35:40.087Z,18.50
2019-06-07T20:37:48.096Z,16.10
2019-06-07T20:40:02.298Z,16.70
2019-06-07T20:42:07.797Z,17.77
2019-06-07T20:44:16.646Z,17.20
2019-06-07T20:46:24.459Z,16.80
2019-06-07T20:48:30.623Z,17.17
2019-06-07T20:50:36.889Z,16.50
2019-06-07T20:52:43.170Z,17.00
2019-06-07T20:54:51.051Z,17.00
2019-06-07T20:57:00.491Z,17.17
2019-06-07T20:59:07.160Z,18.30
2019-06-07T21:01:13.396Z,15.83
2019-06-07T21:03:19.555Z,17.83
2019-06-07T21:05:25.717Z,16.13
2019-06-07T21:07:31.876Z,18.23
2019-06-07T21:09:38.128Z,17.87
2019-06-07T21:11:44.386Z,18.97
2019-06-07T21:13:50.624Z,18.20
2019-06-07T21:15:56.912Z,19.77
2019-06-07T21:18:04.811Z,19.30
2019-06-07T21:20:14.165Z,18.03
2019-06-07T21:22:19.595Z,20.07
2019-06-07T21:24:25.861Z,19.50
2019-06-07T21:26:32.221Z,17.70
2019-06-07T21:28:39.884Z,18.83
2019-06-07T21:30:46.388Z,19.57
2019-06-07T21:32:52.631Z,19.47
2019-06-07T21:34:58.805Z,19.27
2019-06-07T21:39:20.648Z,18.67
2019-06-07T21:41:27.021Z,19.70
2019-06-07T21:43:33.162Z,19.17
2019-06-07T21:45:39.422Z,18.27
2019-06-07T21:47:50.278Z,17.67
2019-06-07T21:49:56.749Z,18.07
2019-06-07T21:52:04.296Z,17.83
2019-06-07T21:54:13.063Z,19.20
2019-06-07T21:56:18.597Z,18.00
2019-06-07T21:58:25.049Z,18.13
2019-06-07T22:01:04.285Z,17.77
2019-06-07T22:03:11.875Z,18.00
2019-06-07T22:05:18.242Z,19.43
2019-06-07T22:07:24.409Z,20.97
2019-06-07T22:09:30.565Z,19.50
2019-06-07T22:11:36.826Z,18.80
2019-06-07T22:13:42.991Z,19.20
2019-06-07T22:15:49.150Z,18.83
2019-06-07T22:17:55.518Z,17.93
2019-06-07T22:20:01.765Z,17.83
2019-06-07T22:22:09.335Z,18.20
2019-06-07T22:24:16.026Z,19.20
2019-06-07T22:26:22.195Z,18.73
2019-06-07T22:28:28.343Z,19.10
2019-06-07T22:30:34.474Z,18.03
2019-06-07T22:32:41.070Z,19.70
2019-06-07T22:34:47.336Z,19.07
2019-06-07T22:36:53.606Z,19.37
2019-06-07T22:38:59.855Z,18.50
2019-06-07T22:41:07.648Z,19.37
2019-06-07T22:43:14.217Z,20.47
2019-06-07T22:45:20.711Z,20.07
2019-06-07T22:47:27.557Z,19.30
2019-06-07T22:49:33.817Z,18.57
2019-06-07T22:51:39.971Z,19.37
2019-06-07T22:54:05.801Z,19.80
2019-06-07T22:56:22.592Z,20.40
2019-06-07T22:58:28.969Z,19.47
2019-06-07T23:00:36.675Z,21.23
2019-06-07T23:02:42.923Z,19.97
2019-06-07T23:04:50.520Z,20.07
2019-06-07T23:06:56.778Z,20.47
2019-06-07T23:09:03.040Z,19.70
2019-06-07T23:11:11.114Z,20.53
2019-06-07T23:13:17.809Z,18.80
2019-06-07T23:15:24.882Z,18.97
2019-06-07T23:17:31.146Z,20.73
2019-06-07T23:19:37.300Z,20.07
2019-06-07T23:21:43.447Z,20.60
2019-06-07T23:23:49.511Z,21.03
2019-06-07T23:25:56.385Z,20.10
2019-06-07T23:28:02.551Z,21.10
2019-06-07T23:30:12.324Z,19.70
2019-06-07T23:32:20.160Z,21.00
2019-06-07T23:34:26.543Z,18.83
2019-06-07T23:36:32.909Z,18.77
2019-06-07T23:38:39.078Z,19.10
2019-06-07T23:40:45.332Z,19.87
2019-06-07T23:42:51.493Z,19.03
2019-06-07T23:44:57.768Z,19.87
2019-06-07T23:47:11.423Z,20.73
2019-06-07T23:49:12.466Z,21.27
2019-06-07T23:51:20.008Z,19.50
2019-06-07T23:53:26.166Z,20.00
2019-06-07T23:55:32.434Z,20.80
2019-06-07T23:57:39.096Z,20.23
2019-06-07T23:59:45.248Z,20.30
